sensor_id;sensor_type;location;lat;lon;timestamp;temperature;humidity
41944;DHT22;27636;52.610;13.244;2023-04-24T00:04:11;10.40;99.90
41944;DHT22;27636;52.610;13.244;2023-04-24T00:09:17;10.30;99.90
41944;DHT22;27636;52.610;13.244;2023-04-24T00:14:22;10.30;99.90
41944;DHT22;27636;52.610;13.244;2023-04-24T00:19:26;10.30;99.90
41944;DHT22;27636;52.610;13.244;2023-04-24T00:24:29;10.30;99.90
41944;DHT22;27636;52.610;13.244;2023-04-24T00:29:34;10.20;99.90
41944;DHT22;27636;52.610;13.244;2023-04-24T00:34:37;10.20;99.90
41944;DHT22;27636;52.610;13.244;2023-04-24T00:39:41;10.20;99.90
41944;DHT22;27636;52.610;13.244;2023-04-24T00:44:46;10.30;99.90
41944;DHT22;27636;52.610;13.244;2023-04-24T00:49:50;10.40;99.90
41944;DHT22;27636;52.610;13.244;2023-04-24T00:54:55;10.40;99.90
41944;DHT22;27636;52.610;13.244;2023-04-24T01:00:00;10.40;99.90
41944;DHT22;27636;52.610;13.244;2023-04-24T01:05:04;10.50;99.90
41944;DHT22;27636;52.610;13.244;2023-04-24T01:10:09;10.50;99.90
41944;DHT22;27636;52.610;13.244;2023-04-24T01:15:14;10.50;99.90
41944;DHT22;27636;52.610;13.244;2023-04-24T01:20:18;10.50;99.90
41944;DHT22;27636;52.610;13.244;2023-04-24T01:25:24;10.80;99.90
41944;DHT22;27636;52.610;13.244;2023-04-24T01:30:29;11.10;99.90
41944;DHT22;27636;52.610;13.244;2023-04-24T01:35:33;11.20;99.90
41944;DHT22;27636;52.610;13.244;2023-04-24T01:40:39;11.10;99.90
41944;DHT22;27636;52.610;13.244;2023-04-24T01:45:42;11.10;99.90
41944;DHT22;27636;52.610;13.244;2023-04-24T01:50:46;11.10;99.90
41944;DHT22;27636;52.610;13.244;2023-04-24T01:55:51;11.00;99.90
41944;DHT22;27636;52.610;13.244;2023-04-24T02:00:56;11.10;99.90
41944;DHT22;27636;52.610;13.244;2023-04-24T02:06:03;11.10;99.90
41944;DHT22;27636;52.610;13.244;2023-04-24T02:11:09;10.90;99.90
41944;DHT22;27636;52.610;13.244;2023-04-24T02:16:13;10.80;99.90
41944;DHT22;27636;52.610;13.244;2023-04-24T02:21:16;10.70;99.90
41944;DHT22;27636;52.610;13.244;2023-04-24T02:26:21;10.70;99.90
41944;DHT22;27636;52.610;13.244;2023-04-24T02:31:27;10.50;99.90
41944;DHT22;27636;52.610;13.244;2023-04-24T02:36:31;10.60;99.90
41944;DHT22;27636;52.610;13.244;2023-04-24T02:41:36;10.50;99.90
41944;DHT22;27636;52.610;13.244;2023-04-24T02:46:40;10.50;99.90
41944;DHT22;27636;52.610;13.244;2023-04-24T02:51:45;10.40;99.90
41944;DHT22;27636;52.610;13.244;2023-04-24T02:56:50;10.50;99.90
41944;DHT22;27636;52.610;13.244;2023-04-24T03:01:54;10.50;99.90
41944;DHT22;27636;52.610;13.244;2023-04-24T03:06:57;10.50;99.90
41944;DHT22;27636;52.610;13.244;2023-04-24T03:12:02;10.60;99.90
41944;DHT22;27636;52.610;13.244;2023-04-24T03:17:06;10.60;99.90
41944;DHT22;27636;52.610;13.244;2023-04-24T03:22:09;10.60;99.90
41944;DHT22;27636;52.610;13.244;2023-04-24T03:27:16;10.70;99.90
41944;DHT22;27636;52.610;13.244;2023-04-24T03:32:32;10.70;99.90
41944;DHT22;27636;52.610;13.244;2023-04-24T03:37:37;10.70;99.90
41944;DHT22;27636;52.610;13.244;2023-04-24T03:43:02;10.80;99.90
41944;DHT22;27636;52.610;13.244;2023-04-24T03:48:06;10.80;99.90
41944;DHT22;27636;52.610;13.244;2023-04-24T03:53:11;10.80;99.90
41944;DHT22;27636;52.610;13.244;2023-04-24T03:58:18;10.80;99.90
41944;DHT22;27636;52.610;13.244;2023-04-24T04:03:22;10.80;99.90
41944;DHT22;27636;52.610;13.244;2023-04-24T04:08:26;10.80;99.90
41944;DHT22;27636;52.610;13.244;2023-04-24T04:13:31;10.80;99.90
41944;DHT22;27636;52.610;13.244;2023-04-24T04:18:35;10.80;99.90
41944;DHT22;27636;52.610;13.244;2023-04-24T04:23:40;10.80;99.90
41944;DHT22;27636;52.610;13.244;2023-04-24T04:28:51;10.80;99.90
41944;DHT22;27636;52.610;13.244;2023-04-24T04:33:55;10.70;99.90
41944;DHT22;27636;52.610;13.244;2023-04-24T04:38:59;10.70;99.90
41944;DHT22;27636;52.610;13.244;2023-04-24T04:44:21;10.70;99.90
41944;DHT22;27636;52.610;13.244;2023-04-24T04:49:24;10.80;99.90
41944;DHT22;27636;52.610;13.244;2023-04-24T04:54:28;10.90;99.90
41944;DHT22;27636;52.610;13.244;2023-04-24T04:59:34;11.10;99.90
41944;DHT22;27636;52.610;13.244;2023-04-24T05:04:43;11.20;99.90
41944;DHT22;27636;52.610;13.244;2023-04-24T05:09:47;11.70;99.90
41944;DHT22;27636;52.610;13.244;2023-04-24T05:14:53;11.80;99.90
41944;DHT22;27636;52.610;13.244;2023-04-24T05:19:57;12.20;99.90
41944;DHT22;27636;52.610;13.244;2023-04-24T05:25:02;12.40;99.90
41944;DHT22;27636;52.610;13.244;2023-04-24T05:30:22;12.90;99.90
41944;DHT22;27636;52.610;13.244;2023-04-24T05:35:26;13.20;99.90
41944;DHT22;27636;52.610;13.244;2023-04-24T05:40:30;13.40;99.90
41944;DHT22;27636;52.610;13.244;2023-04-24T05:45:35;13.90;99.90
41944;DHT22;27636;52.610;13.244;2023-04-24T05:50:39;14.20;99.90
41944;DHT22;27636;52.610;13.244;2023-04-24T05:55:43;14.70;99.90
41944;DHT22;27636;52.610;13.244;2023-04-24T06:00:48;15.50;99.90
41944;DHT22;27636;52.610;13.244;2023-04-24T06:05:53;15.90;99.90
41944;DHT22;27636;52.610;13.244;2023-04-24T06:10:59;17.70;99.90
41944;DHT22;27636;52.610;13.244;2023-04-24T06:16:06;18.00;99.90
41944;DHT22;27636;52.610;13.244;2023-04-24T06:21:16;18.20;99.90
41944;DHT22;27636;52.610;13.244;2023-04-24T06:26:21;19.60;99.90
41944;DHT22;27636;52.610;13.244;2023-04-24T06:31:26;21.00;97.40
41944;DHT22;27636;52.610;13.244;2023-04-24T06:36:30;22.20;92.50
41944;DHT22;27636;52.610;13.244;2023-04-24T06:41:34;22.90;85.00
41944;DHT22;27636;52.610;13.244;2023-04-24T06:46:39;23.50;83.70
41944;DHT22;27636;52.610;13.244;2023-04-24T06:51:44;23.60;79.30
41944;DHT22;27636;52.610;13.244;2023-04-24T06:56:48;22.50;78.50
41944;DHT22;27636;52.610;13.244;2023-04-24T07:01:54;21.40;81.60
41944;DHT22;27636;52.610;13.244;2023-04-24T07:06:58;22.10;78.30
41944;DHT22;27636;52.610;13.244;2023-04-24T07:18:24;19.40;85.00
41944;DHT22;27636;52.610;13.244;2023-04-24T07:23:28;20.20;82.50
41944;DHT22;27636;52.610;13.244;2023-04-24T07:28:32;21.30;80.10
41944;DHT22;27636;52.610;13.244;2023-04-24T07:33:37;23.50;73.70
41944;DHT22;27636;52.610;13.244;2023-04-24T07:38:41;24.10;67.60
41944;DHT22;27636;52.610;13.244;2023-04-24T07:43:45;23.40;68.90
41944;DHT22;27636;52.610;13.244;2023-04-24T07:48:50;23.60;69.30
41944;DHT22;27636;52.610;13.244;2023-04-24T07:54:14;24.20;63.70
41944;DHT22;27636;52.610;13.244;2023-04-24T07:59:18;25.10;64.30
41944;DHT22;27636;52.610;13.244;2023-04-24T08:04:23;24.90;60.50
41944;DHT22;27636;52.610;13.244;2023-04-24T08:09:27;23.10;62.70
41944;DHT22;27636;52.610;13.244;2023-04-24T08:14:30;22.70;65.30
41944;DHT22;27636;52.610;13.244;2023-04-24T08:19:36;23.00;62.70
41944;DHT22;27636;52.610;13.244;2023-04-24T08:25:42;23.50;66.40
41944;DHT22;27636;52.610;13.244;2023-04-24T08:30:45;22.90;65.80
41944;DHT22;27636;52.610;13.244;2023-04-24T08:35:49;23.40;64.80
41944;DHT22;27636;52.610;13.244;2023-04-24T08:41:27;22.00;65.50
41944;DHT22;27636;52.610;13.244;2023-04-24T08:46:31;20.90;69.10
41944;DHT22;27636;52.610;13.244;2023-04-24T08:51:36;20.50;71.50
41944;DHT22;27636;52.610;13.244;2023-04-24T08:56:44;21.10;70.00
41944;DHT22;27636;52.610;13.244;2023-04-24T09:01:48;21.10;69.30
41944;DHT22;27636;52.610;13.244;2023-04-24T09:06:54;20.70;72.00
41944;DHT22;27636;52.610;13.244;2023-04-24T09:12:00;21.20;71.70
41944;DHT22;27636;52.610;13.244;2023-04-24T09:17:04;20.80;72.80
41944;DHT22;27636;52.610;13.244;2023-04-24T09:23:20;20.60;72.20
41944;DHT22;27636;52.610;13.244;2023-04-24T09:28:30;20.80;71.00
41944;DHT22;27636;52.610;13.244;2023-04-24T09:33:34;21.30;70.90
41944;DHT22;27636;52.610;13.244;2023-04-24T09:38:39;20.60;72.70
41944;DHT22;27636;52.610;13.244;2023-04-24T09:43:44;20.90;76.30
41944;DHT22;27636;52.610;13.244;2023-04-24T09:48:48;20.10;75.20
41944;DHT22;27636;52.610;13.244;2023-04-24T09:53:53;18.70;79.80
41944;DHT22;27636;52.610;13.244;2023-04-24T09:59:08;17.80;84.20
41944;DHT22;27636;52.610;13.244;2023-04-24T10:04:16;18.00;86.40
41944;DHT22;27636;52.610;13.244;2023-04-24T10:09:23;17.90;87.00
41944;DHT22;27636;52.610;13.244;2023-04-24T10:14:29;17.90;85.20
41944;DHT22;27636;52.610;13.244;2023-04-24T10:19:35;17.70;87.80
41944;DHT22;27636;52.610;13.244;2023-04-24T10:24:41;18.30;85.00
41944;DHT22;27636;52.610;13.244;2023-04-24T10:29:49;19.20;80.00
41944;DHT22;27636;52.610;13.244;2023-04-24T10:34:56;19.40;80.00
41944;DHT22;27636;52.610;13.244;2023-04-24T10:40:01;18.90;81.70
41944;DHT22;27636;52.610;13.244;2023-04-24T10:45:18;18.20;83.10
41944;DHT22;27636;52.610;13.244;2023-04-24T10:50:22;17.50;86.30
41944;DHT22;27636;52.610;13.244;2023-04-24T10:55:46;17.50;87.40
41944;DHT22;27636;52.610;13.244;2023-04-24T11:00:59;18.10;85.90
41944;DHT22;27636;52.610;13.244;2023-04-24T11:06:04;19.50;82.00
41944;DHT22;27636;52.610;13.244;2023-04-24T11:11:10;20.30;76.00
41944;DHT22;27636;52.610;13.244;2023-04-24T11:16:20;20.20;75.90
41944;DHT22;27636;52.610;13.244;2023-04-24T11:21:25;19.40;81.50
41944;DHT22;27636;52.610;13.244;2023-04-24T11:26:29;18.80;82.00
41944;DHT22;27636;52.610;13.244;2023-04-24T11:31:38;19.70;81.20
41944;DHT22;27636;52.610;13.244;2023-04-24T11:36:43;20.10;76.10
41944;DHT22;27636;52.610;13.244;2023-04-24T11:41:47;20.40;74.80
41944;DHT22;27636;52.610;13.244;2023-04-24T11:46:52;21.60;69.40
41944;DHT22;27636;52.610;13.244;2023-04-24T11:52:00;22.50;67.50
41944;DHT22;27636;52.610;13.244;2023-04-24T11:57:05;22.20;68.90
41944;DHT22;27636;52.610;13.244;2023-04-24T12:02:20;21.50;70.20
41944;DHT22;27636;52.610;13.244;2023-04-24T12:07:24;20.30;74.60
41944;DHT22;27636;52.610;13.244;2023-04-24T12:12:28;20.10;74.80
41944;DHT22;27636;52.610;13.244;2023-04-24T12:17:34;19.20;79.40
41944;DHT22;27636;52.610;13.244;2023-04-24T12:22:45;18.60;80.50
41944;DHT22;27636;52.610;13.244;2023-04-24T12:27:53;18.20;82.00
41944;DHT22;27636;52.610;13.244;2023-04-24T12:32:59;18.30;81.50
41944;DHT22;27636;52.610;13.244;2023-04-24T12:38:05;18.40;80.40
41944;DHT22;27636;52.610;13.244;2023-04-24T12:43:14;19.00;79.40
41944;DHT22;27636;52.610;13.244;2023-04-24T12:48:20;19.50;70.30
41944;DHT22;27636;52.610;13.244;2023-04-24T12:53:24;18.80;73.50
41944;DHT22;27636;52.610;13.244;2023-04-24T12:58:29;18.50;75.70
41944;DHT22;27636;52.610;13.244;2023-04-24T13:03:35;19.60;77.80
41944;DHT22;27636;52.610;13.244;2023-04-24T13:08:39;20.90;71.10
41944;DHT22;27636;52.610;13.244;2023-04-24T13:13:43;20.30;69.90
41944;DHT22;27636;52.610;13.244;2023-04-24T13:18:48;19.50;76.00
41944;DHT22;27636;52.610;13.244;2023-04-24T13:23:52;19.40;81.20
41944;DHT22;27636;52.610;13.244;2023-04-24T13:28:56;20.30;76.80
41944;DHT22;27636;52.610;13.244;2023-04-24T13:34:03;19.50;79.80
41944;DHT22;27636;52.610;13.244;2023-04-24T13:39:08;20.50;76.80
41944;DHT22;27636;52.610;13.244;2023-04-24T13:44:12;21.60;71.00
41944;DHT22;27636;52.610;13.244;2023-04-24T13:49:16;20.90;67.70
41944;DHT22;27636;52.610;13.244;2023-04-24T13:54:20;20.30;71.80
41944;DHT22;27636;52.610;13.244;2023-04-24T13:59:25;19.60;70.20
41944;DHT22;27636;52.610;13.244;2023-04-24T14:04:31;19.70;72.70
41944;DHT22;27636;52.610;13.244;2023-04-24T14:09:34;19.10;69.60
41944;DHT22;27636;52.610;13.244;2023-04-24T14:14:38;19.40;69.80
41944;DHT22;27636;52.610;13.244;2023-04-24T14:19:43;20.50;63.00
41944;DHT22;27636;52.610;13.244;2023-04-24T14:24:48;19.70;59.40
41944;DHT22;27636;52.610;13.244;2023-04-24T14:29:55;20.70;57.80
41944;DHT22;27636;52.610;13.244;2023-04-24T14:35:01;21.30;55.40
41944;DHT22;27636;52.610;13.244;2023-04-24T14:40:05;20.70;58.90
41944;DHT22;27636;52.610;13.244;2023-04-24T14:45:13;20.80;56.40
41944;DHT22;27636;52.610;13.244;2023-04-24T14:50:19;20.00;57.20
41944;DHT22;27636;52.610;13.244;2023-04-24T14:55:26;20.40;57.60
41944;DHT22;27636;52.610;13.244;2023-04-24T15:00:30;20.50;55.80
41944;DHT22;27636;52.610;13.244;2023-04-24T15:05:34;20.20;57.50
41944;DHT22;27636;52.610;13.244;2023-04-24T15:10:39;19.90;58.20
41944;DHT22;27636;52.610;13.244;2023-04-24T15:15:43;20.00;58.70
41944;DHT22;27636;52.610;13.244;2023-04-24T15:20:48;20.00;57.20
41944;DHT22;27636;52.610;13.244;2023-04-24T15:25:52;18.90;60.00
41944;DHT22;27636;52.610;13.244;2023-04-24T15:30:55;18.40;62.50
41944;DHT22;27636;52.610;13.244;2023-04-24T15:36:02;17.90;63.70
41944;DHT22;27636;52.610;13.244;2023-04-24T15:41:06;17.30;63.00
41944;DHT22;27636;52.610;13.244;2023-04-24T15:46:09;17.10;65.20
41944;DHT22;27636;52.610;13.244;2023-04-24T15:51:14;17.80;64.00
41944;DHT22;27636;52.610;13.244;2023-04-24T15:56:18;19.50;60.30
41944;DHT22;27636;52.610;13.244;2023-04-24T16:01:23;19.30;57.90
41944;DHT22;27636;52.610;13.244;2023-04-24T16:06:28;18.60;58.80
41944;DHT22;27636;52.610;13.244;2023-04-24T16:11:32;18.20;61.20
41944;DHT22;27636;52.610;13.244;2023-04-24T16:16:38;17.60;62.00
41944;DHT22;27636;52.610;13.244;2023-04-24T16:21:43;17.40;63.20
41944;DHT22;27636;52.610;13.244;2023-04-24T16:26:47;17.30;64.70
41944;DHT22;27636;52.610;13.244;2023-04-24T16:31:51;16.90;66.50
41944;DHT22;27636;52.610;13.244;2023-04-24T16:36:56;15.90;73.90
41944;DHT22;27636;52.610;13.244;2023-04-24T16:41:59;15.50;78.80
41944;DHT22;27636;52.610;13.244;2023-04-24T16:47:04;15.20;80.20
41944;DHT22;27636;52.610;13.244;2023-04-24T16:52:10;14.70;82.40
41944;DHT22;27636;52.610;13.244;2023-04-24T16:57:14;14.40;83.40
41944;DHT22;27636;52.610;13.244;2023-04-24T17:02:18;14.20;86.00
41944;DHT22;27636;52.610;13.244;2023-04-24T17:07:23;14.00;87.20
41944;DHT22;27636;52.610;13.244;2023-04-24T17:12:27;14.30;88.50
41944;DHT22;27636;52.610;13.244;2023-04-24T17:17:30;14.40;89.10
41944;DHT22;27636;52.610;13.244;2023-04-24T17:22:35;14.20;90.10
41944;DHT22;27636;52.610;13.244;2023-04-24T17:27:38;14.10;89.40
41944;DHT22;27636;52.610;13.244;2023-04-24T17:32:42;13.80;91.50
41944;DHT22;27636;52.610;13.244;2023-04-24T17:37:47;13.30;96.10
41944;DHT22;27636;52.610;13.244;2023-04-24T17:42:50;12.80;97.00
41944;DHT22;27636;52.610;13.244;2023-04-24T17:47:54;12.70;97.30
41944;DHT22;27636;52.610;13.244;2023-04-24T17:53:00;12.60;98.30
41944;DHT22;27636;52.610;13.244;2023-04-24T17:58:04;12.60;97.40
41944;DHT22;27636;52.610;13.244;2023-04-24T18:03:08;12.70;96.60
41944;DHT22;27636;52.610;13.244;2023-04-24T18:08:13;12.60;95.60
41944;DHT22;27636;52.610;13.244;2023-04-24T18:13:17;12.50;94.90
41944;DHT22;27636;52.610;13.244;2023-04-24T18:18:20;12.40;94.60
41944;DHT22;27636;52.610;13.244;2023-04-24T18:23:26;12.20;93.40
41944;DHT22;27636;52.610;13.244;2023-04-24T18:28:30;12.00;93.90
41944;DHT22;27636;52.610;13.244;2023-04-24T18:33:33;11.80;94.40
41944;DHT22;27636;52.610;13.244;2023-04-24T18:38:38;11.60;94.30
41944;DHT22;27636;52.610;13.244;2023-04-24T18:43:42;11.30;94.30
41944;DHT22;27636;52.610;13.244;2023-04-24T18:48:45;11.30;95.40
41944;DHT22;27636;52.610;13.244;2023-04-24T18:53:51;11.00;96.20
41944;DHT22;27636;52.610;13.244;2023-04-24T18:58:54;10.80;97.50
41944;DHT22;27636;52.610;13.244;2023-04-24T19:03:58;10.60;97.60
41944;DHT22;27636;52.610;13.244;2023-04-24T19:09:03;10.50;98.30
41944;DHT22;27636;52.610;13.244;2023-04-24T19:14:07;10.40;99.20
41944;DHT22;27636;52.610;13.244;2023-04-24T19:19:10;10.30;99.60
41944;DHT22;27636;52.610;13.244;2023-04-24T19:24:15;10.30;99.90
41944;DHT22;27636;52.610;13.244;2023-04-24T19:29:21;10.50;99.90
41944;DHT22;27636;52.610;13.244;2023-04-24T19:34:24;10.50;99.90
41944;DHT22;27636;52.610;13.244;2023-04-24T19:39:29;10.30;99.90
41944;DHT22;27636;52.610;13.244;2023-04-24T19:44:34;10.00;99.90
41944;DHT22;27636;52.610;13.244;2023-04-24T19:49:38;9.90;99.90
41944;DHT22;27636;52.610;13.244;2023-04-24T19:54:43;10.00;99.90
41944;DHT22;27636;52.610;13.244;2023-04-24T19:59:47;10.10;99.90
41944;DHT22;27636;52.610;13.244;2023-04-24T20:04:51;10.30;99.90
41944;DHT22;27636;52.610;13.244;2023-04-24T20:09:56;10.00;99.90
41944;DHT22;27636;52.610;13.244;2023-04-24T20:15:01;9.90;99.90
41944;DHT22;27636;52.610;13.244;2023-04-24T20:20:06;9.60;99.90
41944;DHT22;27636;52.610;13.244;2023-04-24T20:25:11;9.40;99.90
41944;DHT22;27636;52.610;13.244;2023-04-24T20:30:18;9.40;99.90
41944;DHT22;27636;52.610;13.244;2023-04-24T20:35:21;9.40;99.90
41944;DHT22;27636;52.610;13.244;2023-04-24T20:40:26;9.60;99.90
41944;DHT22;27636;52.610;13.244;2023-04-24T20:45:33;9.90;99.90
41944;DHT22;27636;52.610;13.244;2023-04-24T20:50:37;9.90;99.90
41944;DHT22;27636;52.610;13.244;2023-04-24T20:55:45;10.00;99.90
41944;DHT22;27636;52.610;13.244;2023-04-24T21:00:49;9.90;99.90
41944;DHT22;27636;52.610;13.244;2023-04-24T21:05:53;9.90;99.90
41944;DHT22;27636;52.610;13.244;2023-04-24T21:10:58;10.00;99.90
41944;DHT22;27636;52.610;13.244;2023-04-24T21:16:01;9.90;99.90
41944;DHT22;27636;52.610;13.244;2023-04-24T21:21:06;9.80;99.90
41944;DHT22;27636;52.610;13.244;2023-04-24T21:26:11;9.70;99.90
41944;DHT22;27636;52.610;13.244;2023-04-24T21:31:15;9.70;99.90
41944;DHT22;27636;52.610;13.244;2023-04-24T21:36:19;9.60;99.90
41944;DHT22;27636;52.610;13.244;2023-04-24T21:41:23;9.60;99.90
41944;DHT22;27636;52.610;13.244;2023-04-24T21:46:27;9.70;99.90
41944;DHT22;27636;52.610;13.244;2023-04-24T21:51:30;9.70;99.90
41944;DHT22;27636;52.610;13.244;2023-04-24T21:56:35;9.90;99.90
41944;DHT22;27636;52.610;13.244;2023-04-24T22:01:39;9.80;99.90
41944;DHT22;27636;52.610;13.244;2023-04-24T22:06:42;9.80;99.90
41944;DHT22;27636;52.610;13.244;2023-04-24T22:11:47;9.80;99.90
41944;DHT22;27636;52.610;13.244;2023-04-24T22:16:50;10.00;99.90
41944;DHT22;27636;52.610;13.244;2023-04-24T22:21:54;10.00;99.90
41944;DHT22;27636;52.610;13.244;2023-04-24T22:26:59;10.00;99.90
41944;DHT22;27636;52.610;13.244;2023-04-24T22:32:03;9.90;99.90
41944;DHT22;27636;52.610;13.244;2023-04-24T22:37:07;9.70;99.90
41944;DHT22;27636;52.610;13.244;2023-04-24T22:42:11;9.50;99.90
41944;DHT22;27636;52.610;13.244;2023-04-24T22:47:15;9.40;99.90
41944;DHT22;27636;52.610;13.244;2023-04-24T22:52:19;9.50;99.90
41944;DHT22;27636;52.610;13.244;2023-04-24T22:57:25;9.30;99.90
41944;DHT22;27636;52.610;13.244;2023-04-24T23:02:28;9.00;99.90
41944;DHT22;27636;52.610;13.244;2023-04-24T23:07:32;9.00;99.90
41944;DHT22;27636;52.610;13.244;2023-04-24T23:12:37;9.30;99.90
41944;DHT22;27636;52.610;13.244;2023-04-24T23:17:41;9.50;99.90
41944;DHT22;27636;52.610;13.244;2023-04-24T23:22:44;9.70;99.90
41944;DHT22;27636;52.610;13.244;2023-04-24T23:27:49;9.60;99.90
41944;DHT22;27636;52.610;13.244;2023-04-24T23:32:53;9.80;99.90
41944;DHT22;27636;52.610;13.244;2023-04-24T23:37:57;9.60;99.90
41944;DHT22;27636;52.610;13.244;2023-04-24T23:43:02;9.50;99.90
41944;DHT22;27636;52.610;13.244;2023-04-24T23:48:11;9.30;99.90
41944;DHT22;27636;52.610;13.244;2023-04-24T23:53:14;9.10;99.90
41944;DHT22;27636;52.610;13.244;2023-04-24T23:58:19;9.20;99.90
